createdAt,value
2019-05-23T00:00:43.218Z,12.33
2019-05-23T00:02:16.099Z,12.30
2019-05-23T00:03:41.016Z,12.36
2019-05-23T00:05:07.876Z,12.37
2019-05-23T00:06:38.218Z,12.29
2019-05-23T00:08:00.971Z,12.25
2019-05-23T00:09:25.885Z,12.24
2019-05-23T00:10:40.946Z,12.27
2019-05-23T00:12:04.911Z,12.22
2019-05-23T00:13:29.288Z,12.23
2019-05-23T00:14:40.025Z,12.24
2019-05-23T00:15:46.320Z,12.20
2019-05-23T00:16:52.654Z,12.19
2019-05-23T00:17:57.683Z,12.24
2019-05-23T00:19:02.871Z,12.24
2019-05-23T00:20:08.030Z,12.21
2019-05-23T00:21:14.645Z,12.23
2019-05-23T00:22:19.893Z,12.16
2019-05-23T00:23:26.115Z,12.15
2019-05-23T00:24:30.672Z,12.13
2019-05-23T00:25:36.875Z,12.14
2019-05-23T00:26:41.527Z,12.09
2019-05-23T00:27:47.904Z,12.12
2019-05-23T00:29:08.989Z,12.13
2019-05-23T00:30:02.337Z,12.12
2019-05-23T00:31:11.736Z,12.14
2019-05-23T00:32:24.491Z,12.12
2019-05-23T00:33:30.541Z,12.11
2019-05-23T00:34:37.228Z,12.14
2019-05-23T00:35:42.085Z,12.09
2019-05-23T00:36:47.768Z,12.12
2019-05-23T00:37:53.596Z,12.04
2019-05-23T00:39:00.006Z,12.06
2019-05-23T00:40:08.886Z,12.06
2019-05-23T00:41:14.933Z,12.03
2019-05-23T00:42:21.121Z,12.03
2019-05-23T00:43:28.243Z,12.06
2019-05-23T00:44:32.663Z,12.06
2019-05-23T00:45:38.472Z,12.03
2019-05-23T00:46:43.765Z,12.02
2019-05-23T00:47:49.138Z,11.96
2019-05-23T00:48:54.621Z,12.02
2019-05-23T00:49:59.597Z,12.02
2019-05-23T00:51:05.851Z,11.96
2019-05-23T00:52:11.565Z,11.93
2019-05-23T00:53:17.586Z,11.98
2019-05-23T00:54:23.524Z,11.95
2019-05-23T00:55:29.253Z,11.88
2019-05-23T00:56:36.972Z,11.91
2019-05-23T00:57:41.613Z,11.91
2019-05-23T00:58:47.159Z,11.92
2019-05-23T00:59:51.719Z,11.90
2019-05-23T01:00:58.153Z,11.86
2019-05-23T01:02:02.956Z,11.90
2019-05-23T01:03:10.617Z,11.89
2019-05-23T01:04:16.744Z,11.90
2019-05-23T01:05:22.885Z,11.91
2019-05-23T01:06:27.665Z,11.90
2019-05-23T01:07:33.196Z,11.91
2019-05-23T01:08:38.350Z,11.93
2019-05-23T01:09:44.868Z,11.92
2019-05-23T01:10:51.401Z,11.79
2019-05-23T01:11:57.031Z,11.84
2019-05-23T01:13:02.823Z,11.85
2019-05-23T01:14:09.335Z,11.80
2019-05-23T01:15:14.603Z,11.80
2019-05-23T01:16:19.673Z,11.79
2019-05-23T01:17:28.774Z,11.81
2019-05-23T01:18:34.017Z,11.79
2019-05-23T01:19:39.653Z,11.83
2019-05-23T01:21:01.428Z,11.82
2019-05-23T01:22:08.269Z,11.80
2019-05-23T01:23:13.830Z,11.77
2019-05-23T01:24:25.671Z,11.74
2019-05-23T01:25:31.109Z,11.72
2019-05-23T01:26:36.706Z,11.72
2019-05-23T01:27:41.775Z,11.79
2019-05-23T01:28:46.758Z,11.71
2019-05-23T01:29:52.995Z,11.71
2019-05-23T01:30:59.160Z,11.73
2019-05-23T01:32:14.526Z,11.71
2019-05-23T01:33:19.769Z,11.70
2019-05-23T01:34:25.826Z,11.71
2019-05-23T01:35:31.809Z,11.68
2019-05-23T01:36:36.927Z,11.70
2019-05-23T01:37:43.621Z,11.72
2019-05-23T01:38:48.127Z,11.63
2019-05-23T01:39:54.105Z,11.58
2019-05-23T01:40:59.481Z,11.63
2019-05-23T01:42:05.128Z,11.58
2019-05-23T01:43:10.599Z,11.63
2019-05-23T01:44:16.935Z,11.66
2019-05-23T01:45:22.664Z,11.62
2019-05-23T01:46:29.113Z,11.59
2019-05-23T01:47:34.467Z,11.50
2019-05-23T01:48:40.748Z,11.55
2019-05-23T01:49:45.234Z,11.57
2019-05-23T01:50:50.961Z,11.46
2019-05-23T01:51:57.096Z,11.48
2019-05-23T01:53:02.110Z,11.50
2019-05-23T01:54:07.093Z,11.44
2019-05-23T01:55:12.611Z,11.45
2019-05-23T01:56:18.305Z,11.42
2019-05-23T01:57:24.821Z,11.47
2019-05-23T01:58:29.702Z,11.43
2019-05-23T01:59:35.223Z,11.45
2019-05-23T02:00:40.178Z,11.43
2019-05-23T02:01:45.688Z,11.39
2019-05-23T02:02:51.237Z,11.42
2019-05-23T02:03:56.596Z,11.44
2019-05-23T02:05:01.352Z,11.44
2019-05-23T02:06:07.154Z,11.36
2019-05-23T02:07:11.943Z,11.35
2019-05-23T02:08:17.115Z,11.28
2019-05-23T02:09:22.190Z,11.34
2019-05-23T02:10:28.059Z,11.37
2019-05-23T02:11:33.280Z,11.36
2019-05-23T02:12:39.888Z,11.37
2019-05-23T02:13:46.682Z,11.33
2019-05-23T02:14:53.067Z,11.36
2019-05-23T02:15:57.630Z,11.42
2019-05-23T02:17:03.113Z,11.32
2019-05-23T02:18:09.304Z,11.33
2019-05-23T02:19:15.083Z,11.39
2019-05-23T02:20:20.376Z,11.32
2019-05-23T02:21:27.627Z,11.18
2019-05-23T02:22:32.868Z,11.27
2019-05-23T02:23:38.583Z,11.26
2019-05-23T02:24:44.463Z,11.23
2019-05-23T02:25:49.756Z,11.21
2019-05-23T02:26:54.886Z,11.28
2019-05-23T02:28:00.980Z,11.27
2019-05-23T02:29:06.384Z,11.21
2019-05-23T02:30:33.125Z,11.26
2019-05-23T02:31:23.396Z,11.20
2019-05-23T02:32:28.793Z,11.21
2019-05-23T02:33:33.579Z,11.22
2019-05-23T02:34:40.116Z,11.26
2019-05-23T02:35:44.678Z,11.25
2019-05-23T02:36:50.449Z,11.11
2019-05-23T02:39:37.741Z,11.12
2019-05-23T02:41:03.183Z,11.11
2019-05-23T02:42:09.316Z,11.01
2019-05-23T02:43:29.100Z,10.88
2019-05-23T02:44:34.648Z,10.96
2019-05-23T02:45:43.749Z,11.00
2019-05-23T02:46:50.118Z,10.98
2019-05-23T02:47:55.264Z,10.98
2019-05-23T02:49:01.330Z,10.97
2019-05-23T02:50:08.583Z,10.97
2019-05-23T02:51:29.440Z,10.92
2019-05-23T02:52:38.581Z,10.91
2019-05-23T02:53:44.478Z,10.94
2019-05-23T02:54:49.957Z,10.93
2019-05-23T02:55:58.286Z,10.97
2019-05-23T02:57:05.299Z,10.94
2019-05-23T02:58:18.901Z,10.95
2019-05-23T02:59:36.622Z,11.00
2019-05-23T03:00:56.170Z,10.99
2019-05-23T03:02:05.281Z,10.89
2019-05-23T03:03:11.830Z,10.87
2019-05-23T03:04:18.286Z,10.90
2019-05-23T03:05:26.014Z,10.93
2019-05-23T03:06:32.874Z,10.90
2019-05-23T03:07:38.828Z,10.90
2019-05-23T03:08:45.073Z,10.90
2019-05-23T03:09:51.142Z,10.85
2019-05-23T03:10:59.231Z,10.85
2019-05-23T03:12:05.922Z,10.77
2019-05-23T03:13:12.645Z,10.76
2019-05-23T03:14:19.228Z,10.73
2019-05-23T03:15:25.443Z,10.80
2019-05-23T03:16:32.700Z,10.78
2019-05-23T03:17:43.570Z,10.77
2019-05-23T03:18:52.968Z,10.75
2019-05-23T03:20:00.161Z,10.78
2019-05-23T03:21:05.911Z,10.69
2019-05-23T03:22:28.900Z,10.73
2019-05-23T03:23:33.791Z,10.68
2019-05-23T03:24:39.675Z,10.71
2019-05-23T03:26:05.275Z,10.69
2019-05-23T03:27:11.338Z,10.60
2019-05-23T03:28:18.865Z,10.61
2019-05-23T03:29:24.386Z,10.67
2019-05-23T03:30:34.049Z,10.68
2019-05-23T03:31:59.946Z,10.68
2019-05-23T03:33:08.868Z,10.64
2019-05-23T03:34:14.305Z,10.70
2019-05-23T03:35:26.334Z,10.70
2019-05-23T03:36:31.656Z,10.63
2019-05-23T03:37:36.491Z,10.69
2019-05-23T03:38:44.093Z,10.67
2019-05-23T03:39:49.462Z,10.64
2019-05-23T03:40:55.616Z,10.68
2019-05-23T03:42:00.681Z,10.66
2019-05-23T03:43:09.286Z,10.64
2019-05-23T03:44:13.784Z,10.69
2019-05-23T03:45:20.166Z,10.71
2019-05-23T03:46:26.376Z,10.63
2019-05-23T03:47:32.055Z,10.71
2019-05-23T03:48:38.638Z,10.74
2019-05-23T03:49:43.818Z,10.77
2019-05-23T03:50:48.967Z,10.68
2019-05-23T03:51:56.103Z,10.70
2019-05-23T03:53:01.167Z,10.70
2019-05-23T03:54:06.504Z,10.74
2019-05-23T03:55:11.864Z,10.64
2019-05-23T03:56:17.002Z,10.68
2019-05-23T03:57:25.713Z,10.63
2019-05-23T03:58:30.790Z,10.62
2019-05-23T03:59:35.741Z,10.53
2019-05-23T04:00:42.065Z,10.53
2019-05-23T04:01:49.593Z,10.65
2019-05-23T04:02:55.704Z,10.66
2019-05-23T04:04:00.710Z,10.68
2019-05-23T04:05:08.736Z,10.80
2019-05-23T04:06:14.077Z,10.92
2019-05-23T04:07:20.112Z,10.86
2019-05-23T04:08:24.908Z,10.95
2019-05-23T04:09:30.311Z,10.83
2019-05-23T04:10:35.429Z,10.95
2019-05-23T04:11:41.117Z,10.96
2019-05-23T04:12:47.444Z,10.97
2019-05-23T04:13:52.639Z,11.05
2019-05-23T04:14:57.578Z,11.10
2019-05-23T04:16:03.226Z,10.93
2019-05-23T04:17:10.736Z,11.07
2019-05-23T04:18:15.995Z,11.11
2019-05-23T04:19:20.441Z,11.04
2019-05-23T04:20:26.177Z,11.05
2019-05-23T04:21:30.996Z,10.98
2019-05-23T04:22:37.113Z,10.98
2019-05-23T04:23:41.618Z,10.85
2019-05-23T04:24:46.694Z,10.62
2019-05-23T04:25:51.893Z,10.66
2019-05-23T04:26:57.364Z,10.63
2019-05-23T04:28:02.125Z,10.59
2019-05-23T04:29:07.196Z,10.55
2019-05-23T04:30:12.173Z,10.58
2019-05-23T04:31:18.479Z,10.30
2019-05-23T04:32:23.111Z,10.28
2019-05-23T04:33:28.103Z,10.30
2019-05-23T04:34:32.599Z,10.33
2019-05-23T04:35:37.670Z,10.29
2019-05-23T04:36:42.166Z,10.36
2019-05-23T04:37:47.737Z,10.33
2019-05-23T04:38:52.160Z,10.35
2019-05-23T04:39:58.057Z,10.29
2019-05-23T04:41:02.784Z,10.31
2019-05-23T04:42:09.244Z,10.29
2019-05-23T04:43:13.664Z,10.32
2019-05-23T04:44:19.709Z,10.27
2019-05-23T04:45:24.491Z,10.29
2019-05-23T04:46:29.454Z,10.29
2019-05-23T04:47:34.439Z,10.24
2019-05-23T04:48:39.853Z,10.23
2019-05-23T04:49:45.008Z,10.20
2019-05-23T04:50:50.451Z,10.16
2019-05-23T04:51:55.482Z,10.26
2019-05-23T04:53:00.952Z,10.34
2019-05-23T04:54:06.389Z,10.37
2019-05-23T04:55:13.832Z,10.48
2019-05-23T04:56:18.519Z,10.61
2019-05-23T04:57:27.057Z,10.65
2019-05-23T04:58:31.537Z,10.63
2019-05-23T04:59:36.685Z,10.58
2019-05-23T05:00:41.279Z,10.60
2019-05-23T05:01:46.432Z,10.59
2019-05-23T05:02:51.240Z,10.73
2019-05-23T05:03:58.280Z,10.57
2019-05-23T05:05:03.385Z,10.69
2019-05-23T05:06:08.537Z,10.79
2019-05-23T05:07:13.025Z,10.83
2019-05-23T05:08:18.425Z,10.67
2019-05-23T05:09:32.124Z,10.91
2019-05-23T05:10:37.777Z,11.00
2019-05-23T05:11:42.839Z,10.95
2019-05-23T05:12:48.502Z,10.96
2019-05-23T05:13:53.288Z,11.17
2019-05-23T05:14:58.361Z,11.22
2019-05-23T05:16:02.790Z,11.40
2019-05-23T05:17:08.206Z,11.43
2019-05-23T05:18:13.262Z,11.55
2019-05-23T05:19:18.710Z,11.39
2019-05-23T05:20:23.473Z,11.34
2019-05-23T05:21:28.640Z,11.13
2019-05-23T05:22:33.495Z,11.16
2019-05-23T05:23:38.990Z,11.00
2019-05-23T05:24:43.476Z,10.78
2019-05-23T05:25:48.548Z,10.91
2019-05-23T05:26:53.309Z,10.93
2019-05-23T05:27:58.683Z,11.20
2019-05-23T05:29:04.033Z,11.31
2019-05-23T05:30:09.677Z,11.44
2019-05-23T05:31:14.246Z,11.60
2019-05-23T05:32:21.175Z,11.72
2019-05-23T05:33:26.462Z,11.81
2019-05-23T05:34:31.925Z,11.98
2019-05-23T05:35:37.484Z,12.10
2019-05-23T05:36:42.765Z,12.32
2019-05-23T05:37:47.244Z,12.45
2019-05-23T05:38:53.042Z,12.38
2019-05-23T05:39:57.546Z,12.57
2019-05-23T05:41:02.601Z,12.80
2019-05-23T05:42:09.230Z,12.87
2019-05-23T05:43:15.766Z,12.50
2019-05-23T05:44:21.174Z,12.33
2019-05-23T05:45:26.306Z,12.54
2019-05-23T05:46:33.177Z,12.46
2019-05-23T05:47:38.685Z,12.56
2019-05-23T05:48:43.511Z,12.82
2019-05-23T05:49:49.648Z,12.89
2019-05-23T05:50:54.895Z,12.72
2019-05-23T05:52:00.091Z,12.43
2019-05-23T05:53:04.965Z,12.63
2019-05-23T05:54:10.939Z,12.62
2019-05-23T05:55:15.996Z,12.50
2019-05-23T05:56:20.997Z,12.43
2019-05-23T05:57:25.425Z,12.31
2019-05-23T05:58:30.535Z,12.21
2019-05-23T05:59:35.117Z,12.45
2019-05-23T06:00:47.093Z,12.46
2019-05-23T06:01:51.532Z,12.60
2019-05-23T06:03:04.192Z,12.70
2019-05-23T06:04:03.963Z,12.86
2019-05-23T06:05:11.562Z,13.02
2019-05-23T06:06:32.785Z,13.14
2019-05-23T06:07:38.994Z,13.23
2019-05-23T06:08:45.169Z,12.84
2019-05-23T06:09:51.270Z,13.01
2019-05-23T06:10:55.756Z,13.13
2019-05-23T06:12:01.509Z,13.26
2019-05-23T06:13:06.068Z,13.20
2019-05-23T06:14:11.097Z,13.47
2019-05-23T06:15:15.860Z,13.49
2019-05-23T06:16:21.125Z,13.65
2019-05-23T06:17:25.701Z,13.92
2019-05-23T06:18:30.917Z,13.99
2019-05-23T06:19:35.617Z,13.70
2019-05-23T06:20:43.562Z,13.75
2019-05-23T06:21:48.795Z,13.48
2019-05-23T06:22:53.950Z,13.53
2019-05-23T06:23:59.111Z,13.45
2019-05-23T06:25:05.224Z,13.61
2019-05-23T06:26:11.146Z,13.70
2019-05-23T06:27:17.203Z,13.45
2019-05-23T06:28:22.008Z,13.81
2019-05-23T06:29:27.111Z,13.67
2019-05-23T06:30:33.358Z,13.58
2019-05-23T06:31:38.739Z,13.92
2019-05-23T06:32:43.228Z,13.99
2019-05-23T06:33:48.330Z,13.76
2019-05-23T06:35:08.571Z,13.87
2019-05-23T06:36:13.920Z,14.08
2019-05-23T06:37:18.430Z,14.28
2019-05-23T06:38:24.528Z,14.42
2019-05-23T06:39:29.042Z,14.48
2019-05-23T06:40:34.460Z,14.51
2019-05-23T06:41:39.467Z,14.42
2019-05-23T06:42:44.931Z,14.24
2019-05-23T06:43:49.508Z,14.51
2019-05-23T06:44:55.738Z,14.56
2019-05-23T06:46:00.224Z,14.38
2019-05-23T06:47:06.837Z,14.55
2019-05-23T06:48:13.664Z,14.28
2019-05-23T06:49:18.755Z,14.13
2019-05-23T06:50:24.959Z,14.44
2019-05-23T06:51:30.263Z,14.54
2019-05-23T06:52:35.025Z,14.66
2019-05-23T06:53:40.091Z,14.68
2019-05-23T06:54:44.595Z,14.79
2019-05-23T06:55:49.660Z,14.60
2019-05-23T06:56:54.146Z,14.68
2019-05-23T06:57:59.154Z,14.65
2019-05-23T06:59:04.207Z,14.40
2019-05-23T07:00:10.322Z,14.51
2019-05-23T07:01:15.390Z,14.21
2019-05-23T07:02:20.697Z,14.12
2019-05-23T07:03:40.405Z,14.06
2019-05-23T07:04:33.046Z,14.03
2019-05-23T07:05:38.203Z,14.07
2019-05-23T07:06:43.512Z,14.30
2019-05-23T07:07:48.547Z,14.75
2019-05-23T07:08:54.851Z,15.04
2019-05-23T07:10:00.426Z,15.03
2019-05-23T07:11:05.454Z,15.18
2019-05-23T07:12:10.791Z,15.29
2019-05-23T07:13:16.825Z,15.51
2019-05-23T07:14:21.795Z,15.66
2019-05-23T07:15:28.023Z,15.57
2019-05-23T07:16:32.576Z,15.55
2019-05-23T07:17:38.511Z,15.68
2019-05-23T07:18:44.769Z,15.55
2019-05-23T07:19:50.278Z,15.37
2019-05-23T07:20:54.706Z,15.57
2019-05-23T07:21:59.752Z,15.66
2019-05-23T07:23:05.610Z,15.60
2019-05-23T07:24:11.231Z,15.50
2019-05-23T07:25:15.801Z,15.83
2019-05-23T07:26:20.941Z,16.02
2019-05-23T07:27:26.186Z,15.97
2019-05-23T07:28:31.185Z,15.65
2019-05-23T07:29:35.746Z,15.92
2019-05-23T07:30:40.812Z,16.05
2019-05-23T07:31:45.251Z,15.93
2019-05-23T07:32:50.411Z,15.96
2019-05-23T07:34:01.618Z,16.08
2019-05-23T07:35:02.893Z,16.32
2019-05-23T07:36:09.107Z,16.06
2019-05-23T07:37:14.348Z,15.96
2019-05-23T07:38:19.193Z,15.79
2019-05-23T07:39:24.208Z,15.84
2019-05-23T07:40:28.902Z,16.09
2019-05-23T07:41:33.950Z,16.15
2019-05-23T07:42:38.632Z,15.90
2019-05-23T07:43:44.036Z,15.66
2019-05-23T07:44:50.164Z,15.49
2019-05-23T07:45:59.720Z,15.83
2019-05-23T07:47:04.286Z,15.34
2019-05-23T07:48:09.595Z,15.91
2019-05-23T07:49:14.618Z,15.96
2019-05-23T07:50:19.996Z,16.10
2019-05-23T07:51:24.403Z,16.05
2019-05-23T07:52:29.643Z,16.36
2019-05-23T07:53:39.004Z,16.20
2019-05-23T07:54:45.147Z,16.54
2019-05-23T07:55:54.377Z,16.84
2019-05-23T07:56:59.363Z,16.88
2019-05-23T07:58:05.165Z,16.71
2019-05-23T07:59:09.577Z,16.52
2019-05-23T08:00:18.783Z,16.74
2019-05-23T08:01:27.575Z,16.98
2019-05-23T08:02:36.267Z,17.12
2019-05-23T08:03:41.421Z,16.75
2019-05-23T08:04:46.766Z,16.72
2019-05-23T08:05:52.224Z,16.97
2019-05-23T08:06:57.981Z,16.90
2019-05-23T08:08:03.107Z,17.07
2019-05-23T08:09:10.067Z,16.93
2019-05-23T08:10:30.894Z,16.95
2019-05-23T08:11:23.093Z,16.98
2019-05-23T08:12:27.861Z,17.26
2019-05-23T08:13:33.299Z,17.15
2019-05-23T08:14:37.709Z,17.50
2019-05-23T08:15:43.515Z,16.83
2019-05-23T08:16:48.038Z,16.81
2019-05-23T08:17:53.021Z,17.10
2019-05-23T08:18:57.493Z,17.08
2019-05-23T08:20:02.652Z,17.14
2019-05-23T08:21:08.243Z,16.98
2019-05-23T08:22:13.296Z,16.95
2019-05-23T08:23:17.862Z,17.08
2019-05-23T08:24:23.509Z,17.06
2019-05-23T08:25:28.064Z,16.82
2019-05-23T08:26:34.521Z,16.27
2019-05-23T08:27:39.056Z,16.40
2019-05-23T08:29:11.413Z,16.34
2019-05-23T08:29:51.349Z,16.81
2019-05-23T08:30:56.644Z,17.31
2019-05-23T08:32:01.352Z,17.65
2019-05-23T08:33:07.550Z,17.74
2019-05-23T08:34:12.301Z,17.21
2019-05-23T08:35:18.200Z,16.75
2019-05-23T08:36:24.169Z,16.27
2019-05-23T08:37:29.611Z,16.19
2019-05-23T08:38:34.961Z,16.46
2019-05-23T08:39:41.687Z,16.87
2019-05-23T08:40:46.381Z,16.76
2019-05-23T08:41:52.242Z,16.80
2019-05-23T08:42:56.791Z,16.66
2019-05-23T08:44:02.244Z,16.25
2019-05-23T08:45:10.387Z,16.34
2019-05-23T08:46:15.863Z,16.24
2019-05-23T08:47:22.362Z,16.84
2019-05-23T08:48:27.571Z,16.88
2019-05-23T08:49:32.499Z,17.23
2019-05-23T08:50:38.145Z,17.41
2019-05-23T08:51:42.762Z,16.88
2019-05-23T08:52:48.134Z,16.86
2019-05-23T08:53:52.616Z,16.77
2019-05-23T08:55:00.688Z,17.25
2019-05-23T08:56:17.896Z,17.46
2019-05-23T08:57:12.835Z,17.41
2019-05-23T08:58:17.463Z,17.63
2019-05-23T08:59:23.818Z,17.49
2019-05-23T09:00:32.981Z,17.07
2019-05-23T09:01:38.303Z,16.80
2019-05-23T09:02:43.999Z,16.63
2019-05-23T09:03:50.062Z,17.41
2019-05-23T09:05:04.523Z,17.71
2019-05-23T09:06:02.400Z,17.38
2019-05-23T09:07:09.593Z,17.88
2019-05-23T09:08:17.022Z,18.39
2019-05-23T09:09:29.816Z,18.30
2019-05-23T09:10:30.385Z,18.37
2019-05-23T09:11:35.854Z,18.45
2019-05-23T09:12:41.199Z,17.82
2019-05-23T09:13:46.320Z,17.43
2019-05-23T09:14:51.389Z,17.56
2019-05-23T09:15:55.879Z,18.20
2019-05-23T09:17:01.277Z,18.50
2019-05-23T09:18:05.929Z,18.60
2019-05-23T09:19:11.006Z,18.20
2019-05-23T09:20:16.906Z,18.51
2019-05-23T09:21:21.907Z,18.76
2019-05-23T09:22:28.115Z,17.67
2019-05-23T09:23:33.112Z,17.63
2019-05-23T09:24:37.599Z,17.31
2019-05-23T09:25:42.931Z,17.03
2019-05-23T09:26:48.027Z,17.23
2019-05-23T09:27:54.072Z,17.80
2019-05-23T09:28:59.089Z,18.35
2019-05-23T09:30:06.103Z,18.63
2019-05-23T09:31:11.123Z,18.53
2019-05-23T09:32:16.220Z,18.78
2019-05-23T09:33:20.637Z,19.02
2019-05-23T09:34:25.887Z,18.32
2019-05-23T09:35:30.507Z,17.75
2019-05-23T09:36:36.314Z,17.84
2019-05-23T09:37:41.400Z,18.13
2019-05-23T09:38:46.631Z,18.46
2019-05-23T09:39:51.577Z,18.64
2019-05-23T09:40:56.823Z,18.58
2019-05-23T09:42:01.282Z,18.94
2019-05-23T09:43:06.886Z,18.88
2019-05-23T09:44:11.576Z,18.49
2019-05-23T09:45:19.007Z,18.72
2019-05-23T09:46:24.601Z,18.98
2019-05-23T09:47:29.724Z,19.40
2019-05-23T09:48:34.592Z,19.18
2019-05-23T09:49:39.670Z,19.49
2019-05-23T09:50:44.226Z,19.10
2019-05-23T09:51:51.405Z,19.03
2019-05-23T09:52:55.626Z,19.01
2019-05-23T09:54:00.932Z,18.85
2019-05-23T09:55:07.379Z,19.30
2019-05-23T09:56:12.569Z,19.59
2019-05-23T09:57:17.056Z,18.42
2019-05-23T09:58:22.132Z,18.75
2019-05-23T09:59:27.061Z,19.40
2019-05-23T10:00:33.178Z,19.51
2019-05-23T10:01:37.769Z,20.00
2019-05-23T10:02:43.205Z,20.25
2019-05-23T10:03:48.323Z,20.09
2019-05-23T10:04:53.600Z,19.80
2019-05-23T10:05:58.129Z,20.16
2019-05-23T10:07:03.501Z,20.07
2019-05-23T10:08:09.348Z,19.46
2019-05-23T10:09:14.780Z,19.64
2019-05-23T10:10:20.303Z,20.00
2019-05-23T10:11:25.434Z,19.95
2019-05-23T10:12:29.938Z,19.96
2019-05-23T10:13:38.988Z,20.08
2019-05-23T10:14:41.296Z,20.17
2019-05-23T10:15:56.367Z,19.86
2019-05-23T10:17:00.919Z,19.22
2019-05-23T10:18:06.656Z,19.75
2019-05-23T10:19:11.198Z,20.09
2019-05-23T10:20:16.846Z,20.18
2019-05-23T10:21:21.349Z,19.48
2019-05-23T10:22:26.699Z,20.09
2019-05-23T10:23:32.162Z,19.31
2019-05-23T10:24:37.621Z,19.35
2019-05-23T10:25:42.100Z,19.54
2019-05-23T10:26:47.233Z,19.11
2019-05-23T10:27:51.791Z,19.42
2019-05-23T10:28:56.912Z,19.49
2019-05-23T10:30:01.455Z,18.79
2019-05-23T10:31:07.572Z,18.81
2019-05-23T10:32:13.591Z,19.04
2019-05-23T10:33:18.755Z,19.38
2019-05-23T10:34:23.383Z,20.06
2019-05-23T10:35:28.485Z,20.48
2019-05-23T10:36:32.971Z,20.95
2019-05-23T10:37:38.044Z,21.09
2019-05-23T10:38:42.644Z,21.13
2019-05-23T10:39:50.702Z,21.37
2019-05-23T10:40:55.115Z,21.27
2019-05-23T10:42:00.179Z,20.14
2019-05-23T10:43:05.266Z,19.34
2019-05-23T10:44:10.559Z,19.33
2019-05-23T10:45:15.473Z,19.24
2019-05-23T10:46:20.813Z,19.45
2019-05-23T10:47:25.869Z,19.60
2019-05-23T10:48:31.507Z,19.53
2019-05-23T10:49:36.031Z,19.69
2019-05-23T10:50:44.586Z,20.40
2019-05-23T10:51:47.309Z,20.90
2019-05-23T10:52:52.555Z,21.42
2019-05-23T10:53:57.170Z,20.95
2019-05-23T10:55:02.246Z,21.31
2019-05-23T10:56:06.904Z,21.32
2019-05-23T10:57:13.302Z,21.65
2019-05-23T10:58:19.341Z,21.68
2019-05-23T10:59:24.476Z,21.99
2019-05-23T11:00:30.917Z,22.11
2019-05-23T11:01:36.576Z,21.43
2019-05-23T11:02:43.266Z,21.43
2019-05-23T11:03:49.042Z,20.78
2019-05-23T11:04:53.864Z,21.07
2019-05-23T11:06:14.465Z,20.23
2019-05-23T11:07:06.058Z,20.34
2019-05-23T11:08:10.904Z,19.93
2019-05-23T11:09:15.560Z,19.85
2019-05-23T11:10:22.050Z,19.94
2019-05-23T11:11:27.083Z,20.41
2019-05-23T11:12:32.523Z,19.74
2019-05-23T11:13:36.973Z,20.04
2019-05-23T11:14:42.371Z,20.13
2019-05-23T11:15:47.687Z,20.10
2019-05-23T11:16:53.675Z,20.37
2019-05-23T11:17:58.739Z,20.34
2019-05-23T11:19:03.967Z,20.29
2019-05-23T11:20:35.870Z,20.03
2019-05-23T11:21:39.551Z,20.04
2019-05-23T11:22:44.053Z,19.33
2019-05-23T11:23:50.384Z,20.17
2019-05-23T11:24:55.536Z,20.48
2019-05-23T11:26:01.604Z,19.97
2019-05-23T11:27:06.725Z,19.59
2019-05-23T11:28:11.894Z,19.64
2019-05-23T11:29:16.674Z,19.47
2019-05-23T11:30:28.877Z,19.34
2019-05-23T11:31:34.800Z,19.63
2019-05-23T11:32:39.858Z,19.95
2019-05-23T11:33:44.285Z,19.91
2019-05-23T11:34:49.593Z,20.30
2019-05-23T11:35:54.161Z,20.43
2019-05-23T11:37:00.529Z,19.71
2019-05-23T11:38:05.204Z,19.73
2019-05-23T11:39:10.912Z,19.91
2019-05-23T11:40:15.598Z,20.18
2019-05-23T11:41:21.423Z,19.84
2019-05-23T11:42:25.911Z,20.62
2019-05-23T11:43:30.909Z,21.13
2019-05-23T11:44:35.416Z,21.27
2019-05-23T11:45:46.088Z,21.44
2019-05-23T11:46:48.469Z,21.82
2019-05-23T11:47:53.833Z,22.13
2019-05-23T11:48:58.763Z,22.39
2019-05-23T11:50:05.305Z,22.66
2019-05-23T11:51:10.964Z,22.86
2019-05-23T11:52:16.243Z,22.73
2019-05-23T11:53:20.743Z,22.94
2019-05-23T11:54:26.010Z,22.58
2019-05-23T11:55:30.786Z,22.73
2019-05-23T11:56:37.427Z,22.17
2019-05-23T11:57:42.025Z,22.33
2019-05-23T11:58:47.169Z,22.45
2019-05-23T11:59:52.224Z,22.51
2019-05-23T12:01:10.468Z,22.21
2019-05-23T12:02:17.151Z,21.96
2019-05-23T12:03:22.252Z,21.66
2019-05-23T12:04:26.952Z,21.09
2019-05-23T12:05:32.472Z,21.98
2019-05-23T12:06:57.236Z,22.58
2019-05-23T12:08:02.309Z,22.25
2019-05-23T12:09:07.671Z,22.82
2019-05-23T12:10:14.384Z,22.74
2019-05-23T12:11:20.028Z,22.05
2019-05-23T12:12:25.765Z,21.83
2019-05-23T12:13:31.705Z,21.64
2019-05-23T12:14:36.867Z,22.54
2019-05-23T12:15:42.194Z,21.60
2019-05-23T12:16:47.636Z,21.56
2019-05-23T12:17:52.151Z,21.66
2019-05-23T12:18:57.226Z,21.99
2019-05-23T12:20:02.867Z,22.11
2019-05-23T12:21:08.311Z,22.43
2019-05-23T12:22:13.506Z,22.56
2019-05-23T12:23:18.506Z,22.79
2019-05-23T12:24:23.385Z,23.20
2019-05-23T12:25:28.917Z,23.10
2019-05-23T12:26:33.337Z,22.94
2019-05-23T12:27:39.140Z,22.55
2019-05-23T12:28:43.821Z,22.29
2019-05-23T12:29:48.943Z,22.90
2019-05-23T12:30:53.623Z,22.89
2019-05-23T12:31:58.702Z,23.18
2019-05-23T12:33:03.477Z,22.47
2019-05-23T12:34:08.559Z,22.46
2019-05-23T12:35:14.563Z,22.43
2019-05-23T12:36:19.901Z,22.22
2019-05-23T12:37:24.811Z,22.67
2019-05-23T12:38:29.808Z,22.65
2019-05-23T12:39:34.306Z,22.17
2019-05-23T12:40:39.395Z,22.55
2019-05-23T12:41:43.958Z,22.45
2019-05-23T12:42:49.023Z,21.88
2019-05-23T12:43:53.510Z,22.19
2019-05-23T12:44:59.751Z,22.52
2019-05-23T12:46:04.829Z,21.54
2019-05-23T12:47:11.029Z,21.78
2019-05-23T12:48:35.445Z,20.96
2019-05-23T12:49:41.575Z,20.47
2019-05-23T12:50:54.366Z,20.55
2019-05-23T12:51:59.328Z,21.10
2019-05-23T12:53:04.564Z,20.36
2019-05-23T12:54:09.651Z,21.20
2019-05-23T12:55:15.133Z,21.73
2019-05-23T12:56:19.962Z,21.52
2019-05-23T12:57:25.312Z,21.59
2019-05-23T12:58:30.547Z,20.87
2019-05-23T12:59:36.590Z,20.66
2019-05-23T13:00:42.925Z,20.88
2019-05-23T13:01:49.114Z,21.27
2019-05-23T13:02:54.715Z,21.45
2019-05-23T13:03:59.598Z,21.92
2019-05-23T13:05:07.640Z,22.43
2019-05-23T13:06:12.919Z,20.80
2019-05-23T13:07:34.653Z,21.32
2019-05-23T13:08:24.547Z,21.67
2019-05-23T13:09:29.784Z,22.35
2019-05-23T13:10:34.860Z,22.35
2019-05-23T13:11:40.097Z,21.67
2019-05-23T13:12:44.777Z,22.26
2019-05-23T13:13:50.039Z,22.35
2019-05-23T13:14:58.687Z,21.55
2019-05-23T13:16:01.582Z,21.31
2019-05-23T13:17:06.084Z,21.83
2019-05-23T13:18:11.080Z,21.39
2019-05-23T13:19:16.218Z,21.47
2019-05-23T13:20:21.822Z,21.71
2019-05-23T13:21:26.402Z,22.22
2019-05-23T13:22:31.425Z,22.87
2019-05-23T13:23:36.622Z,23.13
2019-05-23T13:24:52.521Z,23.36
2019-05-23T13:25:48.901Z,22.68
2019-05-23T13:26:53.914Z,22.67
2019-05-23T13:27:59.054Z,22.83
2019-05-23T13:29:04.176Z,22.51
2019-05-23T13:30:09.247Z,21.86
2019-05-23T13:31:14.411Z,21.72
2019-05-23T13:32:19.295Z,21.61
2019-05-23T13:33:25.037Z,21.56
2019-05-23T13:34:29.605Z,21.46
2019-05-23T13:35:34.798Z,21.09
2019-05-23T13:36:39.295Z,21.34
2019-05-23T13:37:53.708Z,21.06
2019-05-23T13:38:50.967Z,21.10
2019-05-23T13:39:56.037Z,20.98
2019-05-23T13:41:00.481Z,20.46
2019-05-23T13:42:05.689Z,21.40
2019-05-23T13:43:10.473Z,21.60
2019-05-23T13:44:32.009Z,21.48
2019-05-23T13:45:22.408Z,21.13
2019-05-23T13:46:27.840Z,21.09
2019-05-23T13:47:32.741Z,20.58
2019-05-23T13:48:39.065Z,20.59
2019-05-23T13:49:43.776Z,20.55
2019-05-23T13:50:48.857Z,19.88
2019-05-23T13:51:53.745Z,20.07
2019-05-23T13:52:59.222Z,20.92
2019-05-23T13:54:05.250Z,21.73
2019-05-23T13:55:10.391Z,22.38
2019-05-23T13:56:14.917Z,22.49
2019-05-23T13:57:19.991Z,22.19
2019-05-23T13:58:25.661Z,22.39
2019-05-23T13:59:31.114Z,22.96
2019-05-23T14:00:35.620Z,22.95
2019-05-23T14:01:40.652Z,22.16
2019-05-23T14:02:45.181Z,21.60
2019-05-23T14:03:50.521Z,22.62
2019-05-23T14:04:55.116Z,23.15
2019-05-23T14:06:00.353Z,23.26
2019-05-23T14:07:06.783Z,21.99
2019-05-23T14:08:13.386Z,22.56
2019-05-23T14:09:20.215Z,21.97
2019-05-23T14:10:25.458Z,21.63
2019-05-23T14:11:30.054Z,21.35
2019-05-23T14:12:35.138Z,21.65
2019-05-23T14:13:40.017Z,22.34
2019-05-23T14:14:45.096Z,22.55